Estación Meteorológica Peña el Pijo (Robertgarden) [ 07/19/24 12:32:08 CEST ]

Fecha Hora Presion(HPa) Temp (°C) Humedad % Rocio (°C) Viento ( m/s) Direccion Lluvia 1Hora(mm) Lluvia 24H(mm) LLuvia Total(mm)
2009-Jan-04 01:01:16 1005.100 4.8 92 3.6       1.03 174.56
2009-Jan-04 02:03:18 1004.700 5.1 90 3.6       1.03 174.56
2009-Jan-04 03:01:13 1004.600 4.9 91 3.5       1.03 174.56
2009-Jan-04 04:01:14 1004.900 4.8 91 3.5       1.03 174.56
2009-Jan-04 05:01:14 1004.900 4.5 92 3.3     1.03 2.07 175.60
2009-Jan-04 06:01:13 1004.900 4.4 93 3.4       2.07 175.60
2009-Jan-04 07:01:16 1005.100 4.4 94 3.5       2.07 175.60
2009-Jan-04 08:01:18 1005.300 4.4 94 3.5       2.07 175.60
2009-Jan-04 09:01:17 1006.100 4.5 94 3.6       2.07 175.60
2009-Jan-04 10:01:12 1006.700 4.9 94 4.0       2.07 175.60
2009-Jan-04 11:01:14 1007.600 5.3 95 4.5       2.07 175.60
2009-Jan-04 12:01:16 1007.700 5.3 93 4.2       2.07 175.60
2009-Jan-04 13:01:12 1007.600 5.3 91 4.0       2.07 175.60
2009-Jan-04 14:01:13 1007.300 5.3 90 3.8       2.07 175.60
2009-Jan-04 15:01:13 1007.700 4.3 91 3.0       2.07 175.60
2009-Jan-04 16:01:17 1007.900 3.2 91 1.9       2.07 175.60
2009-Jan-04 17:01:12 1008.400 3.3 92 2.1       1.03 175.60
2009-Jan-04 18:01:14 1008.700 3.1 93 2.0       1.03 175.60
2009-Jan-04 19:01:14 1009.000 2.9 93 1.9       1.03 175.60
2009-Jan-04 20:01:14 1009.200 3.0 93 1.9       1.03 175.60
2009-Jan-04 21:01:12 1009.600 2.9 94 2.0       1.03 175.60
2009-Jan-04 22:01:16 1009.400 2.8 94 1.9       1.03 175.60
2009-Jan-04 23:01:12 1009.600 2.5 94 1.6       1.03 175.60

Temperatura Máxima:    Temperatura Mínima:
Presión Máxima:1009.600 Hpa    Presión Mínima:1004.600 Hpa


Volver